sensor_id;sensor_type;location;lat;lon;timestamp;pressure;altitude;pressure_sealevel;temperature;humidity
61571;BME280;47463;49.884;10.010;2023-03-23T00:00:01;101190;;;13.2;59
61571;BME280;47463;49.884;10.010;2023-03-23T00:05:01;101180;;;13.3;58
61571;BME280;47463;49.884;10.010;2023-03-23T00:10:01;101190;;;13.3;58
61571;BME280;47463;49.884;10.010;2023-03-23T00:15:01;101180;;;13.3;58
61571;BME280;47463;49.884;10.010;2023-03-23T00:20:01;101170;;;13.2;59
61571;BME280;47463;49.884;10.010;2023-03-23T00:25:01;101170;;;13.2;59
61571;BME280;47463;49.884;10.010;2023-03-23T00:30:01;101170;;;13.3;59
61571;BME280;47463;49.884;10.010;2023-03-23T00:35:01;101170;;;13.2;59
61571;BME280;47463;49.884;10.010;2023-03-23T00:40:01;101170;;;13.3;60
61571;BME280;47463;49.884;10.010;2023-03-23T00:45:01;101160;;;13.3;60
61571;BME280;47463;49.884;10.010;2023-03-23T00:50:01;101160;;;13.3;60
61571;BME280;47463;49.884;10.010;2023-03-23T00:55:01;101160;;;13.3;59
61571;BME280;47463;49.884;10.010;2023-03-23T01:00:01;101160;;;13.2;60
61571;BME280;47463;49.884;10.010;2023-03-23T01:05:01;101150;;;13.2;60
61571;BME280;47463;49.884;10.010;2023-03-23T01:10:01;101150;;;13.2;60
61571;BME280;47463;49.884;10.010;2023-03-23T01:15:01;101140;;;13.2;60
61571;BME280;47463;49.884;10.010;2023-03-23T01:20:01;101140;;;13;61
61571;BME280;47463;49.884;10.010;2023-03-23T01:25:01;101140;;;12.9;61
61571;BME280;47463;49.884;10.010;2023-03-23T01:30:01;101140;;;12.9;61
61571;BME280;47463;49.884;10.010;2023-03-23T01:35:01;101130;;;12.9;61
61571;BME280;47463;49.884;10.010;2023-03-23T01:40:01;101120;;;12.9;61
61571;BME280;47463;49.884;10.010;2023-03-23T01:45:32;101120;;;12.9;61
61571;BME280;47463;49.884;10.010;2023-03-23T01:50:01;101100;;;12.8;61
61571;BME280;47463;49.884;10.010;2023-03-23T01:55:01;101090;;;12.9;60
61571;BME280;47463;49.884;10.010;2023-03-23T02:00:01;101080;;;13;60
61571;BME280;47463;49.884;10.010;2023-03-23T02:05:02;101080;;;12.9;60
61571;BME280;47463;49.884;10.010;2023-03-23T02:10:01;101070;;;12.7;60
61571;BME280;47463;49.884;10.010;2023-03-23T02:15:01;101070;;;12.8;60
61571;BME280;47463;49.884;10.010;2023-03-23T02:20:07;101080;;;12.7;61
61571;BME280;47463;49.884;10.010;2023-03-23T02:25:05;101070;;;12.6;61
61571;BME280;47463;49.884;10.010;2023-03-23T02:30:05;101070;;;12.6;61
61571;BME280;47463;49.884;10.010;2023-03-23T02:35:01;101060;;;12.5;61
61571;BME280;47463;49.884;10.010;2023-03-23T02:40:02;101070;;;12.6;61
61571;BME280;47463;49.884;10.010;2023-03-23T02:45:02;101060;;;12.6;60
61571;BME280;47463;49.884;10.010;2023-03-23T02:50:01;101060;;;12.5;61
61571;BME280;47463;49.884;10.010;2023-03-23T02:55:01;101060;;;12.5;61
61571;BME280;47463;49.884;10.010;2023-03-23T03:00:01;101050;;;12.3;61
61571;BME280;47463;49.884;10.010;2023-03-23T03:05:01;101050;;;12.5;60
61571;BME280;47463;49.884;10.010;2023-03-23T03:10:02;101040;;;12.2;61
61571;BME280;47463;49.884;10.010;2023-03-23T03:15:06;101040;;;12.2;62
61571;BME280;47463;49.884;10.010;2023-03-23T03:20:01;101050;;;12.1;62
61571;BME280;47463;49.884;10.010;2023-03-23T03:25:01;101060;;;12.1;63
61571;BME280;47463;49.884;10.010;2023-03-23T03:30:02;101060;;;12.1;62
61571;BME280;47463;49.884;10.010;2023-03-23T03:35:01;101060;;;12.2;62
61571;BME280;47463;49.884;10.010;2023-03-23T03:40:01;101040;;;12.2;62
61571;BME280;47463;49.884;10.010;2023-03-23T03:45:01;101040;;;12.1;62
61571;BME280;47463;49.884;10.010;2023-03-23T03:50:01;101040;;;12.1;62
61571;BME280;47463;49.884;10.010;2023-03-23T03:55:01;101040;;;12.2;62
61571;BME280;47463;49.884;10.010;2023-03-23T04:00:01;101030;;;12.1;62
61571;BME280;47463;49.884;10.010;2023-03-23T04:05:01;101040;;;12.1;62
61571;BME280;47463;49.884;10.010;2023-03-23T04:10:01;101040;;;12.1;62
61571;BME280;47463;49.884;10.010;2023-03-23T04:15:01;101040;;;12.2;62
61571;BME280;47463;49.884;10.010;2023-03-23T04:20:01;101030;;;12.1;62
61571;BME280;47463;49.884;10.010;2023-03-23T04:25:01;101020;;;12.2;62
61571;BME280;47463;49.884;10.010;2023-03-23T04:30:01;101030;;;12.1;62
61571;BME280;47463;49.884;10.010;2023-03-23T04:35:01;101040;;;12.2;62
61571;BME280;47463;49.884;10.010;2023-03-23T04:40:01;101040;;;12.1;62
61571;BME280;47463;49.884;10.010;2023-03-23T04:45:01;101060;;;12.2;62
61571;BME280;47463;49.884;10.010;2023-03-23T04:50:01;101030;;;12.2;62
61571;BME280;47463;49.884;10.010;2023-03-23T04:55:01;101040;;;12;63
61571;BME280;47463;49.884;10.010;2023-03-23T05:00:01;101040;;;12;63
61571;BME280;47463;49.884;10.010;2023-03-23T05:05:01;101050;;;11.8;64
61571;BME280;47463;49.884;10.010;2023-03-23T05:10:01;101050;;;11.8;65
61571;BME280;47463;49.884;10.010;2023-03-23T05:15:01;101060;;;11.8;64
61571;BME280;47463;49.884;10.010;2023-03-23T05:20:01;101060;;;11.9;64
61571;BME280;47463;49.884;10.010;2023-03-23T05:25:01;101060;;;11.9;64
61571;BME280;47463;49.884;10.010;2023-03-23T05:30:01;101070;;;11.9;64
61571;BME280;47463;49.884;10.010;2023-03-23T05:35:01;101060;;;11.8;65
61571;BME280;47463;49.884;10.010;2023-03-23T05:40:01;101070;;;11.6;67
61571;BME280;47463;49.884;10.010;2023-03-23T05:45:01;101070;;;11.5;67
61571;BME280;47463;49.884;10.010;2023-03-23T05:50:01;101070;;;11.5;67
61571;BME280;47463;49.884;10.010;2023-03-23T05:55:01;101080;;;11.4;68
61571;BME280;47463;49.884;10.010;2023-03-23T06:00:01;101090;;;11.3;69
61571;BME280;47463;49.884;10.010;2023-03-23T06:05:01;101100;;;11.4;69
61571;BME280;47463;49.884;10.010;2023-03-23T06:10:01;101110;;;11.4;69
61571;BME280;47463;49.884;10.010;2023-03-23T06:15:01;101100;;;11.5;69
61571;BME280;47463;49.884;10.010;2023-03-23T06:20:01;101110;;;11.4;70
61571;BME280;47463;49.884;10.010;2023-03-23T06:25:01;101110;;;11.4;70
61571;BME280;47463;49.884;10.010;2023-03-23T06:30:01;101110;;;11.2;72
61571;BME280;47463;49.884;10.010;2023-03-23T06:35:01;101110;;;11.2;72
61571;BME280;47463;49.884;10.010;2023-03-23T06:40:01;101110;;;11.3;72
61571;BME280;47463;49.884;10.010;2023-03-23T06:45:02;101110;;;11.3;72
61571;BME280;47463;49.884;10.010;2023-03-23T06:50:01;101120;;;11.3;73
61571;BME280;47463;49.884;10.010;2023-03-23T06:55:01;101120;;;11.3;74
61571;BME280;47463;49.884;10.010;2023-03-23T07:00:01;101130;;;11.3;73
61571;BME280;47463;49.884;10.010;2023-03-23T07:05:01;101130;;;11.2;74
61571;BME280;47463;49.884;10.010;2023-03-23T07:10:01;101130;;;11.2;74
61571;BME280;47463;49.884;10.010;2023-03-23T07:15:01;101150;;;11.4;73
61571;BME280;47463;49.884;10.010;2023-03-23T07:20:01;101150;;;11.5;73
61571;BME280;47463;49.884;10.010;2023-03-23T07:25:01;101140;;;11.5;73
61571;BME280;47463;49.884;10.010;2023-03-23T07:30:01;101150;;;11.4;74
61571;BME280;47463;49.884;10.010;2023-03-23T07:35:01;101150;;;11.5;74
61571;BME280;47463;49.884;10.010;2023-03-23T07:40:01;101160;;;11.7;73
61571;BME280;47463;49.884;10.010;2023-03-23T07:45:01;101170;;;11.8;72
61571;BME280;47463;49.884;10.010;2023-03-23T07:50:01;101160;;;11.9;72
61571;BME280;47463;49.884;10.010;2023-03-23T07:55:01;101160;;;12;72
61571;BME280;47463;49.884;10.010;2023-03-23T08:00:01;101160;;;12.1;71
61571;BME280;47463;49.884;10.010;2023-03-23T08:05:01;101170;;;12.1;71
61571;BME280;47463;49.884;10.010;2023-03-23T08:10:01;101170;;;12.2;71
61571;BME280;47463;49.884;10.010;2023-03-23T08:15:01;101180;;;12.1;72
61571;BME280;47463;49.884;10.010;2023-03-23T08:20:01;101180;;;11.9;73
61571;BME280;47463;49.884;10.010;2023-03-23T08:25:01;101190;;;11.9;74
61571;BME280;47463;49.884;10.010;2023-03-23T08:30:01;101200;;;11.7;75
61571;BME280;47463;49.884;10.010;2023-03-23T08:35:01;101200;;;11.7;75
61571;BME280;47463;49.884;10.010;2023-03-23T08:40:01;101210;;;11.6;76
61571;BME280;47463;49.884;10.010;2023-03-23T08:45:01;101210;;;11.8;75
61571;BME280;47463;49.884;10.010;2023-03-23T08:50:01;101220;;;11.7;76
61571;BME280;47463;49.884;10.010;2023-03-23T08:55:01;101220;;;11.7;76
61571;BME280;47463;49.884;10.010;2023-03-23T09:00:01;101220;;;11.7;77
61571;BME280;47463;49.884;10.010;2023-03-23T09:05:01;101220;;;12;75
61571;BME280;47463;49.884;10.010;2023-03-23T09:10:01;101220;;;12.1;75
61571;BME280;47463;49.884;10.010;2023-03-23T09:15:01;101210;;;12.2;74
61571;BME280;47463;49.884;10.010;2023-03-23T09:20:01;101210;;;12.2;74
61571;BME280;47463;49.884;10.010;2023-03-23T09:25:01;101220;;;12.2;75
61571;BME280;47463;49.884;10.010;2023-03-23T09:30:01;101220;;;12.3;75
61571;BME280;47463;49.884;10.010;2023-03-23T09:35:01;101230;;;12.3;75
61571;BME280;47463;49.884;10.010;2023-03-23T09:40:01;101230;;;12.4;75
61571;BME280;47463;49.884;10.010;2023-03-23T09:45:04;101230;;;12.5;75
61571;BME280;47463;49.884;10.010;2023-03-23T09:50:03;101240;;;12.5;74
61571;BME280;47463;49.884;10.010;2023-03-23T09:55:01;101250;;;12.4;74
61571;BME280;47463;49.884;10.010;2023-03-23T10:00:03;101260;;;12.5;75
61571;BME280;47463;49.884;10.010;2023-03-23T10:05:05;101270;;;12.4;75
61571;BME280;47463;49.884;10.010;2023-03-23T10:10:01;101280;;;12.4;74
61571;BME280;47463;49.884;10.010;2023-03-23T10:15:04;101280;;;12.5;75
61571;BME280;47463;49.884;10.010;2023-03-23T10:20:04;101280;;;12.5;74
61571;BME280;47463;49.884;10.010;2023-03-23T10:25:03;101280;;;12.6;73
61571;BME280;47463;49.884;10.010;2023-03-23T10:30:02;101290;;;12.6;73
61571;BME280;47463;49.884;10.010;2023-03-23T10:35:01;101280;;;12.6;73
61571;BME280;47463;49.884;10.010;2023-03-23T10:40:01;101270;;;12.7;73
61571;BME280;47463;49.884;10.010;2023-03-23T10:45:10;101260;;;12.8;72
61571;BME280;47463;49.884;10.010;2023-03-23T10:50:02;101250;;;12.9;72
61571;BME280;47463;49.884;10.010;2023-03-23T10:55:03;101260;;;13;72
61571;BME280;47463;49.884;10.010;2023-03-23T11:00:02;101250;;;13.1;71
61571;BME280;47463;49.884;10.010;2023-03-23T11:05:01;101250;;;13.3;71
61571;BME280;47463;49.884;10.010;2023-03-23T11:10:05;101260;;;13.3;71
61571;BME280;47463;49.884;10.010;2023-03-23T11:15:14;101250;;;13.3;70
61571;BME280;47463;49.884;10.010;2023-03-23T11:20:09;101260;;;13.4;70
61571;BME280;47463;49.884;10.010;2023-03-23T11:25:02;101280;;;13.4;69
61571;BME280;47463;49.884;10.010;2023-03-23T11:30:01;101260;;;13.3;70
61571;BME280;47463;49.884;10.010;2023-03-23T11:35:01;101270;;;13.2;69
61571;BME280;47463;49.884;10.010;2023-03-23T11:40:02;101270;;;13.1;70
61571;BME280;47463;49.884;10.010;2023-03-23T11:45:07;101260;;;13.1;70
61571;BME280;47463;49.884;10.010;2023-03-23T11:50:03;101270;;;13.2;69
61571;BME280;47463;49.884;10.010;2023-03-23T11:55:02;101290;;;13.2;69
61571;BME280;47463;49.884;10.010;2023-03-23T12:00:01;101270;;;13;70
61571;BME280;47463;49.884;10.010;2023-03-23T12:05:23;101270;;;13;70
61571;BME280;47463;49.884;10.010;2023-03-23T12:10:02;101260;;;13.2;71
61571;BME280;47463;49.884;10.010;2023-03-23T12:15:03;101270;;;13;71
61571;BME280;47463;49.884;10.010;2023-03-23T12:20:04;101280;;;12.9;71
61571;BME280;47463;49.884;10.010;2023-03-23T12:25:05;101290;;;12.8;73
61571;BME280;47463;49.884;10.010;2023-03-23T12:30:04;101270;;;12.8;73
61571;BME280;47463;49.884;10.010;2023-03-23T12:35:03;101270;;;12.8;73
61571;BME280;47463;49.884;10.010;2023-03-23T12:40:06;101270;;;12.8;72
61571;BME280;47463;49.884;10.010;2023-03-23T12:45:03;101270;;;12.7;73
61571;BME280;47463;49.884;10.010;2023-03-23T12:50:02;101270;;;12.6;75
61571;BME280;47463;49.884;10.010;2023-03-23T12:55:01;101260;;;12.8;75
61571;BME280;47463;49.884;10.010;2023-03-23T13:00:03;101250;;;13.1;75
61571;BME280;47463;49.884;10.010;2023-03-23T13:05:03;101240;;;13.2;74
61571;BME280;47463;49.884;10.010;2023-03-23T13:10:02;101210;;;13.5;74
61571;BME280;47463;49.884;10.010;2023-03-23T13:15:03;101190;;;13.5;73
61571;BME280;47463;49.884;10.010;2023-03-23T13:20:04;101180;;;13.5;74
61571;BME280;47463;49.884;10.010;2023-03-23T13:25:02;101180;;;13.6;74
61571;BME280;47463;49.884;10.010;2023-03-23T13:30:01;101170;;;13.6;73
61571;BME280;47463;49.884;10.010;2023-03-23T13:35:01;101170;;;13.8;72
61571;BME280;47463;49.884;10.010;2023-03-23T13:40:13;101170;;;13.7;71
61571;BME280;47463;49.884;10.010;2023-03-23T13:45:18;101150;;;13.8;71
61571;BME280;47463;49.884;10.010;2023-03-23T13:50:02;101150;;;13.9;71
61571;BME280;47463;49.884;10.010;2023-03-23T13:55:08;101140;;;13.9;70
61571;BME280;47463;49.884;10.010;2023-03-23T14:00:08;101160;;;13.9;72
61571;BME280;47463;49.884;10.010;2023-03-23T14:05:09;101160;;;13.7;72
61571;BME280;47463;49.884;10.010;2023-03-23T14:10:04;101170;;;13.6;73
61571;BME280;47463;49.884;10.010;2023-03-23T14:15:01;101170;;;13.7;71
61571;BME280;47463;49.884;10.010;2023-03-23T14:20:01;101150;;;13.8;71
61571;BME280;47463;49.884;10.010;2023-03-23T14:25:01;101150;;;13.8;71
61571;BME280;47463;49.884;10.010;2023-03-23T14:30:02;101140;;;13.9;70
61571;BME280;47463;49.884;10.010;2023-03-23T14:35:21;101160;;;13.7;72
61571;BME280;47463;49.884;10.010;2023-03-23T14:40:01;101170;;;13.5;73
61571;BME280;47463;49.884;10.010;2023-03-23T14:45:01;101170;;;13.5;73
61571;BME280;47463;49.884;10.010;2023-03-23T14:50:02;101170;;;13.5;72
61571;BME280;47463;49.884;10.010;2023-03-23T14:55:10;101170;;;13.6;72
61571;BME280;47463;49.884;10.010;2023-03-23T15:00:01;101180;;;13.6;72
61571;BME280;47463;49.884;10.010;2023-03-23T15:05:02;101170;;;13.7;72
61571;BME280;47463;49.884;10.010;2023-03-23T15:10:01;101180;;;13.7;71
61571;BME280;47463;49.884;10.010;2023-03-23T15:15:02;101180;;;13.8;70
61571;BME280;47463;49.884;10.010;2023-03-23T15:20:07;101170;;;13.8;69
61571;BME280;47463;49.884;10.010;2023-03-23T15:25:02;101180;;;13.7;70
61571;BME280;47463;49.884;10.010;2023-03-23T15:30:11;101180;;;13.6;70
61571;BME280;47463;49.884;10.010;2023-03-23T15:35:03;101170;;;13.6;70
61571;BME280;47463;49.884;10.010;2023-03-23T15:40:01;101170;;;13.5;70
61571;BME280;47463;49.884;10.010;2023-03-23T15:45:15;101160;;;13.3;71
61571;BME280;47463;49.884;10.010;2023-03-23T15:50:02;101170;;;13.2;72
61571;BME280;47463;49.884;10.010;2023-03-23T15:55:01;101180;;;13;72
61571;BME280;47463;49.884;10.010;2023-03-23T16:00:01;101180;;;13;73
61571;BME280;47463;49.884;10.010;2023-03-23T16:05:01;101180;;;12.9;73
61571;BME280;47463;49.884;10.010;2023-03-23T16:10:01;101180;;;12.9;74
61571;BME280;47463;49.884;10.010;2023-03-23T16:15:01;101170;;;12.9;73
61571;BME280;47463;49.884;10.010;2023-03-23T16:20:01;101180;;;13;73
61571;BME280;47463;49.884;10.010;2023-03-23T16:25:01;101180;;;13;73
61571;BME280;47463;49.884;10.010;2023-03-23T16:30:01;101180;;;13;73
61571;BME280;47463;49.884;10.010;2023-03-23T16:35:01;101160;;;12.9;73
61571;BME280;47463;49.884;10.010;2023-03-23T16:40:01;101170;;;12.9;74
61571;BME280;47463;49.884;10.010;2023-03-23T16:45:01;101170;;;12.9;73
61571;BME280;47463;49.884;10.010;2023-03-23T16:50:01;101170;;;12.8;74
61571;BME280;47463;49.884;10.010;2023-03-23T16:55:01;101170;;;12.9;73
61571;BME280;47463;49.884;10.010;2023-03-23T17:00:01;101180;;;12.9;73
61571;BME280;47463;49.884;10.010;2023-03-23T17:05:01;101190;;;12.9;73
61571;BME280;47463;49.884;10.010;2023-03-23T17:10:01;101190;;;12.9;73
61571;BME280;47463;49.884;10.010;2023-03-23T17:15:01;101190;;;12.9;73
61571;BME280;47463;49.884;10.010;2023-03-23T17:20:01;101180;;;13;72
61571;BME280;47463;49.884;10.010;2023-03-23T17:25:01;101180;;;12.9;72
61571;BME280;47463;49.884;10.010;2023-03-23T17:30:01;101170;;;12.8;73
61571;BME280;47463;49.884;10.010;2023-03-23T17:35:01;101190;;;12.7;74
61571;BME280;47463;49.884;10.010;2023-03-23T17:40:01;101190;;;12.8;73
61571;BME280;47463;49.884;10.010;2023-03-23T17:45:01;101190;;;12.8;73
61571;BME280;47463;49.884;10.010;2023-03-23T17:50:01;101190;;;12.8;73
61571;BME280;47463;49.884;10.010;2023-03-23T17:55:01;101200;;;12.8;73
61571;BME280;47463;49.884;10.010;2023-03-23T18:00:01;101190;;;12.8;73
61571;BME280;47463;49.884;10.010;2023-03-23T18:05:01;101200;;;12.7;73
61571;BME280;47463;49.884;10.010;2023-03-23T18:10:01;101190;;;12.7;73
61571;BME280;47463;49.884;10.010;2023-03-23T18:15:01;101190;;;12.8;73
61571;BME280;47463;49.884;10.010;2023-03-23T18:20:01;101190;;;12.8;73
61571;BME280;47463;49.884;10.010;2023-03-23T18:25:01;101190;;;12.7;73
61571;BME280;47463;49.884;10.010;2023-03-23T18:30:01;101190;;;12.7;73
61571;BME280;47463;49.884;10.010;2023-03-23T18:35:01;101190;;;12.6;74
61571;BME280;47463;49.884;10.010;2023-03-23T18:40:01;101190;;;12.5;74
61571;BME280;47463;49.884;10.010;2023-03-23T18:45:01;101190;;;12.4;75
61571;BME280;47463;49.884;10.010;2023-03-23T18:50:01;101200;;;12.4;75
61571;BME280;47463;49.884;10.010;2023-03-23T18:55:01;101190;;;12.3;75
61571;BME280;47463;49.884;10.010;2023-03-23T19:00:01;101200;;;12.3;75
61571;BME280;47463;49.884;10.010;2023-03-23T19:05:01;101200;;;12.3;75
61571;BME280;47463;49.884;10.010;2023-03-23T19:10:01;101200;;;12.2;76
61571;BME280;47463;49.884;10.010;2023-03-23T19:15:01;101190;;;12.2;75
61571;BME280;47463;49.884;10.010;2023-03-23T19:20:01;101200;;;12.2;75
61571;BME280;47463;49.884;10.010;2023-03-23T19:25:01;101200;;;12.2;75
61571;BME280;47463;49.884;10.010;2023-03-23T19:30:01;101190;;;12.2;75
61571;BME280;47463;49.884;10.010;2023-03-23T19:35:01;101200;;;12.1;76
61571;BME280;47463;49.884;10.010;2023-03-23T19:40:01;101190;;;12.1;76
61571;BME280;47463;49.884;10.010;2023-03-23T19:45:01;101190;;;12.1;76
61571;BME280;47463;49.884;10.010;2023-03-23T19:50:01;101190;;;12.2;75
61571;BME280;47463;49.884;10.010;2023-03-23T19:55:01;101180;;;12.1;76
61571;BME280;47463;49.884;10.010;2023-03-23T20:00:01;101180;;;12;77
61571;BME280;47463;49.884;10.010;2023-03-23T20:05:01;101180;;;11.9;77
61571;BME280;47463;49.884;10.010;2023-03-23T20:10:01;101180;;;11.9;77
61571;BME280;47463;49.884;10.010;2023-03-23T20:15:01;101180;;;11.8;77
61571;BME280;47463;49.884;10.010;2023-03-23T20:20:01;101170;;;12;77
61571;BME280;47463;49.884;10.010;2023-03-23T20:25:01;101170;;;12;76
61571;BME280;47463;49.884;10.010;2023-03-23T20:30:01;101160;;;12.2;76
61571;BME280;47463;49.884;10.010;2023-03-23T20:35:01;101160;;;12.1;76
61571;BME280;47463;49.884;10.010;2023-03-23T20:40:01;101160;;;12;77
61571;BME280;47463;49.884;10.010;2023-03-23T20:45:01;101150;;;11.8;78
61571;BME280;47463;49.884;10.010;2023-03-23T20:50:01;101160;;;11.6;78
61571;BME280;47463;49.884;10.010;2023-03-23T20:55:01;101150;;;11.5;79
61571;BME280;47463;49.884;10.010;2023-03-23T21:00:01;101140;;;11.4;80
61571;BME280;47463;49.884;10.010;2023-03-23T21:05:01;101140;;;11.4;80
61571;BME280;47463;49.884;10.010;2023-03-23T21:10:01;101140;;;11.3;80
61571;BME280;47463;49.884;10.010;2023-03-23T21:15:01;101140;;;11.5;79
61571;BME280;47463;49.884;10.010;2023-03-23T21:20:01;101140;;;11.6;79
61571;BME280;47463;49.884;10.010;2023-03-23T21:25:01;101130;;;11.6;78
61571;BME280;47463;49.884;10.010;2023-03-23T21:30:01;101120;;;11.6;79
61571;BME280;47463;49.884;10.010;2023-03-23T21:35:01;101110;;;11.6;79
61571;BME280;47463;49.884;10.010;2023-03-23T21:40:01;101100;;;11.5;79
61571;BME280;47463;49.884;10.010;2023-03-23T21:45:01;101100;;;11.2;80
61571;BME280;47463;49.884;10.010;2023-03-23T21:50:01;101090;;;11.2;80
61571;BME280;47463;49.884;10.010;2023-03-23T21:55:01;101080;;;11.4;79
61571;BME280;47463;49.884;10.010;2023-03-23T22:00:01;101080;;;11.4;79
61571;BME280;47463;49.884;10.010;2023-03-23T22:05:01;101070;;;11.4;79
61571;BME280;47463;49.884;10.010;2023-03-23T22:10:01;101060;;;11.7;78
61571;BME280;47463;49.884;10.010;2023-03-23T22:15:01;101060;;;11.5;78
61571;BME280;47463;49.884;10.010;2023-03-23T22:20:01;101070;;;11.5;78
61571;BME280;47463;49.884;10.010;2023-03-23T22:25:01;101050;;;11.5;78
61571;BME280;47463;49.884;10.010;2023-03-23T22:30:01;101050;;;11.5;78
61571;BME280;47463;49.884;10.010;2023-03-23T22:35:01;101040;;;11.3;79
61571;BME280;47463;49.884;10.010;2023-03-23T22:40:01;101040;;;11.3;79
61571;BME280;47463;49.884;10.010;2023-03-23T22:45:01;101040;;;11.3;79
61571;BME280;47463;49.884;10.010;2023-03-23T22:50:01;101020;;;11.4;78
61571;BME280;47463;49.884;10.010;2023-03-23T22:55:01;101010;;;11.4;78
61571;BME280;47463;49.884;10.010;2023-03-23T23:00:01;101010;;;11.3;79
61571;BME280;47463;49.884;10.010;2023-03-23T23:05:01;101010;;;11.3;79
61571;BME280;47463;49.884;10.010;2023-03-23T23:10:01;101010;;;11.4;78
61571;BME280;47463;49.884;10.010;2023-03-23T23:15:01;101000;;;11.5;78
61571;BME280;47463;49.884;10.010;2023-03-23T23:20:01;100990;;;11.5;78
61571;BME280;47463;49.884;10.010;2023-03-23T23:25:01;100990;;;11.5;77
61571;BME280;47463;49.884;10.010;2023-03-23T23:30:01;100980;;;11.6;77
61571;BME280;47463;49.884;10.010;2023-03-23T23:35:01;101000;;;11.5;77
61571;BME280;47463;49.884;10.010;2023-03-23T23:40:01;100990;;;11.5;77
61571;BME280;47463;49.884;10.010;2023-03-23T23:45:01;100980;;;11.5;77
61571;BME280;47463;49.884;10.010;2023-03-23T23:50:01;100990;;;11.5;77
61571;BME280;47463;49.884;10.010;2023-03-23T23:55:01;100980;;;11.7;76
